createdAt,value
2019-04-26T00:00:33.637Z,966.77
2019-04-26T00:01:33.658Z,966.76
2019-04-26T00:02:33.626Z,966.78
2019-04-26T00:03:33.629Z,966.82
2019-04-26T00:04:33.595Z,966.78
2019-04-26T00:05:35.224Z,966.74
2019-04-26T00:06:33.586Z,966.74
2019-04-26T00:07:33.573Z,966.67
2019-04-26T00:08:33.555Z,966.68
2019-04-26T00:09:33.538Z,966.73
2019-04-26T00:10:33.531Z,966.73
2019-04-26T00:11:33.517Z,966.77
2019-04-26T00:12:33.506Z,966.81
2019-04-26T00:13:34.734Z,966.88
2019-04-26T00:14:33.498Z,966.84
2019-04-26T00:15:33.488Z,966.83
2019-04-26T00:16:33.483Z,966.84
2019-04-26T00:17:33.469Z,966.84
2019-04-26T00:18:33.507Z,966.85
2019-04-26T00:19:33.444Z,966.77
2019-04-26T00:20:33.434Z,966.80
2019-04-26T00:21:33.425Z,966.72
2019-04-26T00:22:33.412Z,966.78
2019-04-26T00:23:33.406Z,966.78
2019-04-26T00:24:33.391Z,966.77
2019-04-26T00:25:33.389Z,966.81
2019-04-26T00:26:33.370Z,966.78
2019-04-26T00:27:33.357Z,966.82
2019-04-26T00:28:33.356Z,966.87
2019-04-26T00:29:33.336Z,966.86
2019-04-26T00:30:33.324Z,966.86
2019-04-26T00:31:33.321Z,966.86
2019-04-26T00:32:33.304Z,966.86
2019-04-26T00:33:33.308Z,966.84
2019-04-26T00:34:33.280Z,966.84
2019-04-26T00:35:33.277Z,966.84
2019-04-26T00:36:33.261Z,966.81
2019-04-26T00:37:33.250Z,966.86
2019-04-26T00:38:33.249Z,966.80
2019-04-26T00:39:33.228Z,966.86
2019-04-26T00:40:33.242Z,966.87
2019-04-26T00:41:33.206Z,966.82
2019-04-26T00:42:33.238Z,966.85
2019-04-26T00:43:33.208Z,966.87
2019-04-26T00:44:33.172Z,966.83
2019-04-26T00:45:33.163Z,966.88
2019-04-26T00:46:33.151Z,966.80
2019-04-26T00:47:33.140Z,966.81
2019-04-26T00:48:33.148Z,966.81
2019-04-26T00:49:43.118Z,966.82
2019-04-26T00:50:34.115Z,966.87
2019-04-26T00:51:33.095Z,966.87
2019-04-26T00:52:33.135Z,966.91
2019-04-26T00:53:33.087Z,966.88
2019-04-26T00:54:33.073Z,966.86
2019-04-26T00:55:33.052Z,966.93
2019-04-26T00:56:33.731Z,966.87
2019-04-26T00:57:33.032Z,966.83
2019-04-26T00:58:33.687Z,966.90
2019-04-26T00:59:32.998Z,966.90
2019-04-26T01:00:32.984Z,966.91
2019-04-26T01:01:32.985Z,966.93
2019-04-26T01:02:32.976Z,967.00
2019-04-26T01:03:32.968Z,966.99
2019-04-26T01:04:32.960Z,966.98
2019-04-26T01:05:32.928Z,967.02
2019-04-26T01:06:32.919Z,966.99
2019-04-26T01:07:32.910Z,967.01
2019-04-26T01:08:32.896Z,966.97
2019-04-26T01:09:32.888Z,966.95
2019-04-26T01:10:32.897Z,967.01
2019-04-26T01:11:32.864Z,967.01
2019-04-26T01:12:32.858Z,967.00
2019-04-26T01:13:32.843Z,967.08
2019-04-26T01:14:32.842Z,967.11
2019-04-26T01:15:32.820Z,967.09
2019-04-26T01:16:32.812Z,967.14
2019-04-26T01:17:32.799Z,967.15
2019-04-26T01:18:32.789Z,967.14
2019-04-26T01:19:32.781Z,967.18
2019-04-26T01:20:32.768Z,967.15
2019-04-26T01:21:32.759Z,967.19
2019-04-26T01:22:32.790Z,967.14
2019-04-26T01:23:32.742Z,967.07
2019-04-26T01:24:32.735Z,967.11
2019-04-26T01:25:32.716Z,967.13
2019-04-26T01:26:32.706Z,967.17
2019-04-26T01:27:32.693Z,967.15
2019-04-26T01:28:32.681Z,967.13
2019-04-26T01:29:32.672Z,967.17
2019-04-26T01:30:32.659Z,967.15
2019-04-26T01:31:32.650Z,967.18
2019-04-26T01:32:32.638Z,967.22
2019-04-26T01:33:32.640Z,967.18
2019-04-26T01:35:57.152Z,967.13
2019-04-26T01:36:42.486Z,967.15
2019-04-26T01:37:42.482Z,967.11
2019-04-26T01:38:42.461Z,967.08
2019-04-26T01:39:42.462Z,966.99
2019-04-26T01:40:42.424Z,966.96
2019-04-26T01:41:42.414Z,966.96
2019-04-26T01:42:42.417Z,966.95
2019-04-26T01:43:42.394Z,967.06
2019-04-26T01:44:42.395Z,967.06
2019-04-26T01:45:42.372Z,967.05
2019-04-26T01:46:42.362Z,967.01
2019-04-26T01:47:42.367Z,967.01
2019-04-26T01:48:42.352Z,966.92
2019-04-26T01:49:42.352Z,966.96
2019-04-26T01:50:42.317Z,966.94
2019-04-26T01:51:42.308Z,966.99
2019-04-26T01:52:42.310Z,967.03
2019-04-26T01:53:42.285Z,967.06
2019-04-26T01:54:42.277Z,966.98
2019-04-26T01:55:42.265Z,966.98
2019-04-26T01:56:42.252Z,966.99
2019-04-26T01:57:42.242Z,967.00
2019-04-26T01:58:42.229Z,967.01
2019-04-26T01:59:42.227Z,966.95
2019-04-26T02:00:42.214Z,967.01
2019-04-26T02:01:42.200Z,966.97
2019-04-26T02:02:42.191Z,967.02
2019-04-26T02:03:42.173Z,967.00
2019-04-26T02:04:42.166Z,967.02
2019-04-26T02:05:42.162Z,967.05
2019-04-26T02:06:42.141Z,967.08
2019-04-26T02:07:42.132Z,967.06
2019-04-26T02:08:42.118Z,966.97
2019-04-26T02:09:42.110Z,967.03
2019-04-26T02:10:42.110Z,966.97
2019-04-26T02:11:42.099Z,967.01
2019-04-26T02:12:42.088Z,966.97
2019-04-26T02:13:42.157Z,966.91
2019-04-26T02:14:42.066Z,966.92
2019-04-26T02:15:42.061Z,966.85
2019-04-26T02:16:42.043Z,966.88
2019-04-26T02:17:42.034Z,966.82
2019-04-26T02:18:42.026Z,966.87
2019-04-26T02:19:42.014Z,966.87
2019-04-26T02:20:42.075Z,966.80
2019-04-26T02:21:41.989Z,966.80
2019-04-26T02:22:41.981Z,966.76
2019-04-26T02:23:41.967Z,966.80
2019-04-26T02:24:41.955Z,966.78
2019-04-26T02:25:41.949Z,966.82
2019-04-26T02:26:41.942Z,966.80
2019-04-26T02:27:41.923Z,966.80
2019-04-26T02:28:41.913Z,966.81
2019-04-26T02:29:41.901Z,966.75
2019-04-26T02:30:41.901Z,966.78
2019-04-26T02:31:41.884Z,966.81
2019-04-26T02:32:41.907Z,966.76
2019-04-26T02:33:41.859Z,966.78
2019-04-26T02:34:41.859Z,966.78
2019-04-26T02:35:41.950Z,966.79
2019-04-26T02:36:56.363Z,966.73
2019-04-26T02:37:42.811Z,966.75
2019-04-26T02:38:41.805Z,966.72
2019-04-26T02:39:41.793Z,966.70
2019-04-26T02:40:41.783Z,966.70
2019-04-26T02:41:41.783Z,966.72
2019-04-26T02:42:41.765Z,966.63
2019-04-26T02:43:41.747Z,966.61
2019-04-26T02:44:41.753Z,966.56
2019-04-26T02:45:41.725Z,966.47
2019-04-26T02:46:41.727Z,966.45
2019-04-26T02:47:41.708Z,966.42
2019-04-26T02:48:41.694Z,966.44
2019-04-26T02:49:41.685Z,966.45
2019-04-26T02:50:41.675Z,966.44
2019-04-26T02:51:41.675Z,966.50
2019-04-26T02:52:41.650Z,966.50
2019-04-26T02:53:41.640Z,966.58
2019-04-26T02:54:41.639Z,966.64
2019-04-26T02:55:42.575Z,966.57
2019-04-26T02:56:41.623Z,966.59
2019-04-26T02:57:41.623Z,966.53
2019-04-26T02:58:41.590Z,966.55
2019-04-26T02:59:41.579Z,966.46
2019-04-26T03:00:41.575Z,966.43
2019-04-26T03:01:41.565Z,966.59
2019-04-26T03:02:41.546Z,966.55
2019-04-26T03:03:41.570Z,966.50
2019-04-26T03:04:41.528Z,966.46
2019-04-26T03:05:41.512Z,966.48
2019-04-26T03:06:42.958Z,966.43
2019-04-26T03:07:42.804Z,966.32
2019-04-26T03:08:42.697Z,966.41
2019-04-26T03:09:43.046Z,966.44
2019-04-26T03:10:43.276Z,966.36
2019-04-26T03:11:43.193Z,966.34
2019-04-26T03:12:41.438Z,966.32
2019-04-26T03:13:41.430Z,966.28
2019-04-26T03:14:42.033Z,966.32
2019-04-26T03:15:42.557Z,966.37
2019-04-26T03:16:42.922Z,966.36
2019-04-26T03:17:42.942Z,966.30
2019-04-26T03:18:42.622Z,966.37
2019-04-26T03:19:42.919Z,966.38
2019-04-26T03:20:42.264Z,966.31
2019-04-26T03:21:41.348Z,966.32
2019-04-26T03:22:42.707Z,966.32
2019-04-26T03:23:57.140Z,966.40
2019-04-26T03:24:42.628Z,966.39
2019-04-26T03:25:42.243Z,966.44
2019-04-26T03:26:43.147Z,966.44
2019-04-26T03:27:43.377Z,966.46
2019-04-26T03:28:43.443Z,966.41
2019-04-26T03:29:43.613Z,966.36
2019-04-26T03:30:48.737Z,966.42
2019-04-26T03:31:52.478Z,966.37
2019-04-26T03:32:50.394Z,966.40
2019-04-26T03:33:52.170Z,966.34
2019-04-26T03:34:50.799Z,966.39
2019-04-26T03:35:55.355Z,966.44
2019-04-26T03:36:44.166Z,966.38
2019-04-26T03:37:42.638Z,966.40
2019-04-26T03:38:41.941Z,966.33
2019-04-26T03:39:42.932Z,966.40
2019-04-26T03:40:43.176Z,966.35
2019-04-26T03:41:42.854Z,966.35
2019-04-26T03:42:42.872Z,966.33
2019-04-26T03:43:42.631Z,966.38
2019-04-26T03:44:42.351Z,966.47
2019-04-26T03:45:43.078Z,966.46
2019-04-26T03:46:42.809Z,966.50
2019-04-26T03:47:43.984Z,966.43
2019-04-26T03:48:41.757Z,966.52
2019-04-26T03:49:42.047Z,966.46
2019-04-26T03:50:41.605Z,966.46
2019-04-26T03:51:41.623Z,966.46
2019-04-26T03:52:42.122Z,966.49
2019-04-26T03:53:42.418Z,966.49
2019-04-26T03:54:41.128Z,966.50
2019-04-26T03:55:43.281Z,966.50
2019-04-26T03:56:42.371Z,966.47
2019-04-26T03:57:42.862Z,966.52
2019-04-26T03:58:41.917Z,966.51
2019-04-26T03:59:42.263Z,966.54
2019-04-26T04:00:42.856Z,966.55
2019-04-26T04:01:42.687Z,966.56
2019-04-26T04:02:41.598Z,966.52
2019-04-26T04:03:43.488Z,966.55
2019-04-26T04:04:42.771Z,966.54
2019-04-26T04:05:42.035Z,966.55
2019-04-26T04:06:56.778Z,966.52
2019-04-26T04:07:47.191Z,966.57
2019-04-26T04:08:42.875Z,966.56
2019-04-26T04:09:41.461Z,966.56
2019-04-26T04:10:41.946Z,966.56
2019-04-26T04:11:42.279Z,966.60
2019-04-26T04:12:42.174Z,966.55
2019-04-26T04:13:45.490Z,966.55
2019-04-26T04:14:42.947Z,966.58
2019-04-26T04:15:42.586Z,966.61
2019-04-26T04:16:42.872Z,966.59
2019-04-26T04:17:43.203Z,966.60
2019-04-26T04:18:41.901Z,966.57
2019-04-26T04:19:42.102Z,966.61
2019-04-26T04:20:42.430Z,966.59
2019-04-26T04:21:42.553Z,966.60
2019-04-26T04:22:41.757Z,966.58
2019-04-26T04:23:41.837Z,966.54
2019-04-26T04:24:41.642Z,966.59
2019-04-26T04:25:42.351Z,966.61
2019-04-26T04:26:41.495Z,966.66
2019-04-26T04:27:41.959Z,966.68
2019-04-26T04:28:42.477Z,966.70
2019-04-26T04:29:47.171Z,966.68
2019-04-26T04:30:42.249Z,966.74
2019-04-26T04:31:42.256Z,966.74
2019-04-26T04:32:42.565Z,966.79
2019-04-26T04:33:42.616Z,966.78
2019-04-26T04:34:42.078Z,966.78
2019-04-26T04:35:42.287Z,966.75
2019-04-26T04:36:42.174Z,966.78
2019-04-26T04:38:01.866Z,966.77
2019-04-26T04:38:42.730Z,966.81
2019-04-26T04:39:40.879Z,966.82
2019-04-26T04:40:40.907Z,966.85
2019-04-26T04:41:41.062Z,966.91
2019-04-26T04:42:41.478Z,966.91
2019-04-26T04:43:42.028Z,966.91
2019-04-26T04:44:42.332Z,966.86
2019-04-26T04:45:41.970Z,966.87
2019-04-26T04:46:41.753Z,966.88
2019-04-26T04:47:41.297Z,966.86
2019-04-26T04:48:41.209Z,966.88
2019-04-26T04:49:41.124Z,966.87
2019-04-26T04:50:40.973Z,966.89
2019-04-26T04:51:40.837Z,966.94
2019-04-26T04:52:42.507Z,966.96
2019-04-26T04:53:41.203Z,967.01
2019-04-26T04:54:41.525Z,966.94
2019-04-26T04:55:42.849Z,966.93
2019-04-26T04:56:41.528Z,966.95
2019-04-26T04:57:40.318Z,966.94
2019-04-26T04:58:40.323Z,966.95
2019-04-26T04:59:40.278Z,966.93
2019-04-26T05:00:40.268Z,967.04
2019-04-26T05:01:40.254Z,967.10
2019-04-26T05:02:40.336Z,967.09
2019-04-26T05:03:40.234Z,967.07
2019-04-26T05:04:40.302Z,967.00
2019-04-26T05:05:40.212Z,966.92
2019-04-26T05:06:40.201Z,966.92
2019-04-26T05:07:40.189Z,966.96
2019-04-26T05:08:40.180Z,967.07
2019-04-26T05:09:40.171Z,967.10
2019-04-26T05:10:40.164Z,967.18
2019-04-26T05:11:40.149Z,967.16
2019-04-26T05:12:40.137Z,967.14
2019-04-26T05:13:40.131Z,967.10
2019-04-26T05:14:40.127Z,967.05
2019-04-26T05:15:40.105Z,967.10
2019-04-26T05:16:40.117Z,967.15
2019-04-26T05:17:40.086Z,967.20
2019-04-26T05:18:40.073Z,967.21
2019-04-26T05:19:40.144Z,967.21
2019-04-26T05:20:40.051Z,967.28
2019-04-26T05:21:40.041Z,967.25
2019-04-26T05:22:40.072Z,967.19
2019-04-26T05:23:40.018Z,967.24
2019-04-26T05:24:40.022Z,967.17
2019-04-26T05:25:40.457Z,967.18
2019-04-26T05:26:40.011Z,967.24
2019-04-26T05:27:39.981Z,967.29
2019-04-26T05:28:40.004Z,967.31
2019-04-26T05:29:39.998Z,967.28
2019-04-26T05:30:39.963Z,967.36
2019-04-26T05:31:39.934Z,967.34
2019-04-26T05:32:39.930Z,967.33
2019-04-26T05:33:39.962Z,967.28
2019-04-26T05:34:39.911Z,967.29
2019-04-26T05:35:39.893Z,967.34
2019-04-26T05:36:39.879Z,967.31
2019-04-26T05:37:39.885Z,967.32
2019-04-26T05:38:39.881Z,967.26
2019-04-26T05:39:39.862Z,967.31
2019-04-26T05:40:39.867Z,967.32
2019-04-26T05:41:39.827Z,967.27
2019-04-26T05:42:39.820Z,967.28
2019-04-26T05:43:39.804Z,967.21
2019-04-26T05:44:39.811Z,967.27
2019-04-26T05:45:40.688Z,967.25
2019-04-26T05:46:39.774Z,967.30
2019-04-26T05:47:39.788Z,967.26
2019-04-26T05:48:39.753Z,967.33
2019-04-26T05:49:39.743Z,967.34
2019-04-26T05:50:39.734Z,967.35
2019-04-26T05:51:39.722Z,967.38
2019-04-26T05:52:39.709Z,967.41
2019-04-26T05:53:39.698Z,967.41
2019-04-26T05:54:39.747Z,967.34
2019-04-26T05:55:39.677Z,967.44
2019-04-26T05:56:39.665Z,967.33
2019-04-26T05:57:39.654Z,967.42
2019-04-26T05:58:39.644Z,967.39
2019-04-26T05:59:39.647Z,967.44
2019-04-26T06:00:39.619Z,967.51
2019-04-26T06:01:39.616Z,967.47
2019-04-26T06:02:39.599Z,967.47
2019-04-26T06:03:39.588Z,967.52
2019-04-26T06:04:39.612Z,967.46
2019-04-26T06:05:39.567Z,967.41
2019-04-26T06:06:39.557Z,967.50
2019-04-26T06:07:39.543Z,967.55
2019-04-26T06:08:39.532Z,967.58
2019-04-26T06:09:39.535Z,967.52
2019-04-26T06:10:39.513Z,967.54
2019-04-26T06:11:39.501Z,967.50
2019-04-26T06:12:39.489Z,967.49
2019-04-26T06:13:39.477Z,967.51
2019-04-26T06:14:39.468Z,967.54
2019-04-26T06:15:39.468Z,967.49
2019-04-26T06:16:39.446Z,967.43
2019-04-26T06:17:39.432Z,967.45
2019-04-26T06:18:39.427Z,967.44
2019-04-26T06:19:39.419Z,967.47
2019-04-26T06:20:39.402Z,967.48
2019-04-26T06:21:39.393Z,967.49
2019-04-26T06:22:39.376Z,967.50
2019-04-26T06:23:39.366Z,967.41
2019-04-26T06:24:39.353Z,967.40
2019-04-26T06:25:39.370Z,967.43
2019-04-26T06:26:39.331Z,967.44
2019-04-26T06:27:39.327Z,967.39
2019-04-26T06:28:39.312Z,967.46
2019-04-26T06:29:39.303Z,967.47
2019-04-26T06:30:45.363Z,967.40
2019-04-26T06:31:40.278Z,967.49
2019-04-26T06:32:39.355Z,967.43
2019-04-26T06:33:39.251Z,967.42
2019-04-26T06:34:39.241Z,967.42
2019-04-26T06:35:39.263Z,967.48
2019-04-26T06:36:39.219Z,967.50
2019-04-26T06:37:39.227Z,967.58
2019-04-26T06:38:44.114Z,967.57
2019-04-26T06:39:40.191Z,967.61
2019-04-26T06:40:41.992Z,967.58
2019-04-26T06:41:39.167Z,967.60
2019-04-26T06:42:39.155Z,967.61
2019-04-26T06:43:39.143Z,967.62
2019-04-26T06:44:39.150Z,967.62
2019-04-26T06:45:39.123Z,967.56
2019-04-26T06:46:39.117Z,967.63
2019-04-26T06:47:39.099Z,967.59
2019-04-26T06:48:39.092Z,967.58
2019-04-26T06:49:39.079Z,967.52
2019-04-26T06:50:39.066Z,967.54
2019-04-26T06:51:39.055Z,967.56
2019-04-26T06:52:39.041Z,967.56
2019-04-26T06:53:39.042Z,967.50
2019-04-26T06:54:39.019Z,967.52
2019-04-26T06:55:39.008Z,967.50
2019-04-26T06:56:39.007Z,967.55
2019-04-26T06:57:38.986Z,967.54
2019-04-26T06:58:38.975Z,967.61
2019-04-26T06:59:38.963Z,967.61
2019-04-26T07:00:38.952Z,967.64
2019-04-26T07:01:38.943Z,967.65
2019-04-26T07:02:38.934Z,967.64
2019-04-26T07:03:38.919Z,967.70
2019-04-26T07:04:38.906Z,967.64
2019-04-26T07:05:38.899Z,967.58
2019-04-26T07:06:38.895Z,967.53
2019-04-26T07:07:38.876Z,967.52
2019-04-26T07:08:38.863Z,967.55
2019-04-26T07:09:38.851Z,967.59
2019-04-26T07:10:38.840Z,967.64
2019-04-26T07:11:38.834Z,967.63
2019-04-26T07:12:38.819Z,967.62
2019-04-26T07:13:38.816Z,967.60
2019-04-26T07:14:38.797Z,967.58
2019-04-26T07:15:38.787Z,967.52
2019-04-26T07:16:38.782Z,967.57
2019-04-26T07:17:38.793Z,967.58
2019-04-26T07:18:38.751Z,967.63
2019-04-26T07:19:38.750Z,967.61
2019-04-26T07:20:38.733Z,967.54
2019-04-26T07:21:38.747Z,967.51
2019-04-26T07:22:38.712Z,967.58
2019-04-26T07:23:38.698Z,967.55
2019-04-26T07:24:38.687Z,967.54
2019-04-26T07:25:38.675Z,967.61
2019-04-26T07:26:38.667Z,967.54
2019-04-26T07:27:38.694Z,967.59
2019-04-26T07:28:38.646Z,967.61
2019-04-26T07:29:38.633Z,967.68
2019-04-26T07:30:38.623Z,967.71
2019-04-26T07:31:38.617Z,967.70
2019-04-26T07:32:38.607Z,967.73
2019-04-26T07:33:38.589Z,967.81
2019-04-26T07:34:38.619Z,967.76
2019-04-26T07:35:38.567Z,967.82
2019-04-26T07:36:38.559Z,967.77
2019-04-26T07:37:38.554Z,967.82
2019-04-26T07:38:38.534Z,967.78
2019-04-26T07:39:38.527Z,967.84
2019-04-26T07:40:38.522Z,967.84
2019-04-26T07:41:38.503Z,967.84
2019-04-26T07:42:38.514Z,967.80
2019-04-26T07:43:38.480Z,967.86
2019-04-26T07:44:38.471Z,967.82
2019-04-26T07:45:38.458Z,967.80
2019-04-26T07:46:38.449Z,967.80
2019-04-26T07:47:38.441Z,967.89
2019-04-26T07:48:38.426Z,967.91
2019-04-26T07:49:38.420Z,967.94
2019-04-26T07:50:38.409Z,967.86
2019-04-26T07:51:38.396Z,967.98
2019-04-26T07:52:38.385Z,967.98
2019-04-26T07:53:38.377Z,967.92
2019-04-26T07:54:38.360Z,967.86
2019-04-26T07:55:38.353Z,967.83
2019-04-26T07:56:38.346Z,967.90
2019-04-26T07:57:38.337Z,967.90
2019-04-26T07:58:38.317Z,967.95
2019-04-26T07:59:38.306Z,968.02
2019-04-26T08:00:44.562Z,968.02
2019-04-26T08:01:39.287Z,968.03
2019-04-26T08:02:38.286Z,968.02
2019-04-26T08:03:38.278Z,968.01
2019-04-26T08:04:38.252Z,967.94
2019-04-26T08:05:38.241Z,967.97
2019-04-26T08:06:38.230Z,967.96
2019-04-26T08:07:38.230Z,967.92
2019-04-26T08:08:38.215Z,967.87
2019-04-26T08:09:38.199Z,967.90
2019-04-26T08:10:38.337Z,967.88
2019-04-26T08:11:38.178Z,967.89
2019-04-26T08:12:38.176Z,967.91
2019-04-26T08:13:38.155Z,967.90
2019-04-26T08:14:38.155Z,967.96
2019-04-26T08:15:38.141Z,967.89
2019-04-26T08:16:38.125Z,967.98
2019-04-26T08:17:38.225Z,967.96
2019-04-26T08:18:38.099Z,967.98
2019-04-26T08:19:38.089Z,967.99
2019-04-26T08:20:38.080Z,968.09
2019-04-26T08:21:38.071Z,967.97
2019-04-26T08:22:38.066Z,968.01
2019-04-26T08:23:41.682Z,968.06
2019-04-26T08:24:38.083Z,968.19
2019-04-26T08:25:38.037Z,968.12
2019-04-26T08:26:38.013Z,968.14
2019-04-26T08:27:38.016Z,968.09
2019-04-26T08:28:37.992Z,968.07
2019-04-26T08:29:37.986Z,968.12
2019-04-26T08:30:40.547Z,968.12
2019-04-26T08:31:38.963Z,968.15
2019-04-26T08:32:37.975Z,968.12
2019-04-26T08:33:40.407Z,968.13
2019-04-26T08:34:38.930Z,968.06
2019-04-26T08:35:37.919Z,968.10
2019-04-26T08:36:37.908Z,968.21
2019-04-26T08:37:38.034Z,968.22
2019-04-26T08:38:37.892Z,968.25
2019-04-26T08:39:45.519Z,968.23
2019-04-26T08:40:38.905Z,968.23
2019-04-26T08:41:39.099Z,968.22
2019-04-26T08:42:37.842Z,968.23
2019-04-26T08:43:37.834Z,968.18
2019-04-26T08:44:37.825Z,968.32
2019-04-26T08:45:40.376Z,968.26
2019-04-26T08:46:37.799Z,968.31
2019-04-26T08:47:37.792Z,968.32
2019-04-26T08:48:37.789Z,968.31
2019-04-26T08:49:39.196Z,968.32
2019-04-26T08:50:37.756Z,968.35
2019-04-26T08:51:37.748Z,968.34
2019-04-26T08:52:37.737Z,968.41
2019-04-26T08:53:37.771Z,968.40
2019-04-26T08:54:37.714Z,968.40
2019-04-26T08:55:37.702Z,968.39
2019-04-26T08:56:37.696Z,968.38
2019-04-26T08:57:37.683Z,968.42
2019-04-26T08:58:37.699Z,968.44
2019-04-26T08:59:37.657Z,968.41
2019-04-26T09:00:37.681Z,968.52
2019-04-26T09:01:37.635Z,968.52
2019-04-26T09:02:37.625Z,968.57
2019-04-26T09:03:37.642Z,968.61
2019-04-26T09:04:37.605Z,968.47
2019-04-26T09:05:37.591Z,968.58
2019-04-26T09:06:37.583Z,968.57
2019-04-26T09:07:37.590Z,968.55
2019-04-26T09:08:39.323Z,968.58
2019-04-26T09:09:38.551Z,968.60
2019-04-26T09:10:39.333Z,968.64
2019-04-26T09:11:38.523Z,968.67
2019-04-26T09:12:37.516Z,968.72
2019-04-26T09:13:37.502Z,968.79
2019-04-26T09:14:37.672Z,968.75
2019-04-26T09:15:37.482Z,968.69
2019-04-26T09:16:49.637Z,968.78
2019-04-26T09:17:38.456Z,968.70
2019-04-26T09:18:43.576Z,968.67
2019-04-26T09:19:38.442Z,968.75
2019-04-26T09:20:38.600Z,968.76
2019-04-26T09:21:38.417Z,968.79
2019-04-26T09:22:37.403Z,968.74
2019-04-26T09:23:40.394Z,968.72
2019-04-26T09:24:37.391Z,968.70
2019-04-26T09:25:39.215Z,968.67
2019-04-26T09:26:37.362Z,968.68
2019-04-26T09:27:37.350Z,968.77
2019-04-26T09:28:37.336Z,968.71
2019-04-26T09:29:37.327Z,968.76
2019-04-26T09:30:38.516Z,968.73
2019-04-26T09:31:37.320Z,968.77
2019-04-26T09:32:37.293Z,968.80
2019-04-26T09:33:37.458Z,968.77
2019-04-26T09:34:41.305Z,968.78
2019-04-26T09:35:38.260Z,968.90
2019-04-26T09:36:37.276Z,968.91
2019-04-26T09:37:37.240Z,968.91
2019-04-26T09:38:37.229Z,968.91
2019-04-26T09:39:41.558Z,968.94
2019-04-26T09:40:37.213Z,968.94
2019-04-26T09:41:37.198Z,968.98
2019-04-26T09:42:39.405Z,968.94
2019-04-26T09:43:37.181Z,968.94
2019-04-26T09:44:37.598Z,968.93
2019-04-26T09:45:37.162Z,968.96
2019-04-26T09:46:37.163Z,968.98
2019-04-26T09:47:37.146Z,969.01
2019-04-26T09:48:37.126Z,969.02
2019-04-26T09:49:37.368Z,969.01
2019-04-26T09:50:37.109Z,969.03
2019-04-26T09:51:39.025Z,969.04
2019-04-26T09:52:37.084Z,968.98
2019-04-26T09:53:39.547Z,968.99
2019-04-26T09:54:38.084Z,968.95
2019-04-26T09:55:37.052Z,968.97
2019-04-26T09:56:37.068Z,969.00
2019-04-26T09:57:37.046Z,968.93
2019-04-26T09:58:37.019Z,968.97
2019-04-26T09:59:40.082Z,968.95
2019-04-26T10:00:37.001Z,968.93
2019-04-26T10:01:36.986Z,968.99
2019-04-26T10:02:36.975Z,969.02
2019-04-26T10:03:36.966Z,968.99
2019-04-26T10:04:36.986Z,969.05
2019-04-26T10:05:36.945Z,969.06
2019-04-26T10:06:36.936Z,969.09
2019-04-26T10:07:37.433Z,969.03
2019-04-26T10:08:36.915Z,969.00
2019-04-26T10:09:36.900Z,969.03
2019-04-26T10:10:36.914Z,969.01
2019-04-26T10:11:39.547Z,969.02
2019-04-26T10:12:36.868Z,969.10
2019-04-26T10:13:36.861Z,969.02
2019-04-26T10:14:36.846Z,969.02
2019-04-26T10:15:39.039Z,969.05
2019-04-26T10:16:37.632Z,969.08
2019-04-26T10:17:36.818Z,969.07
2019-04-26T10:18:36.865Z,969.12
2019-04-26T10:19:36.795Z,969.24
2019-04-26T10:20:36.793Z,969.28
2019-04-26T10:21:36.776Z,969.35
2019-04-26T10:22:36.809Z,969.40
2019-04-26T10:23:36.755Z,969.25
2019-04-26T10:24:36.745Z,969.32
2019-04-26T10:25:36.733Z,969.33
2019-04-26T10:26:36.720Z,969.30
2019-04-26T10:27:40.685Z,969.29
2019-04-26T10:28:36.699Z,969.33
2019-04-26T10:29:36.687Z,969.29
2019-04-26T10:30:38.447Z,969.31
2019-04-26T10:31:37.664Z,969.32
2019-04-26T10:32:36.685Z,969.33
2019-04-26T10:33:37.789Z,969.39
2019-04-26T10:34:36.632Z,969.48
2019-04-26T10:35:36.623Z,969.45
2019-04-26T10:36:36.617Z,969.44
2019-04-26T10:37:39.669Z,969.43
2019-04-26T10:38:36.587Z,969.57
2019-04-26T10:39:37.032Z,969.54
2019-04-26T10:40:36.591Z,969.60
2019-04-26T10:41:36.557Z,969.61
2019-04-26T10:42:36.545Z,969.49
2019-04-26T10:43:36.536Z,969.43
2019-04-26T10:44:40.010Z,969.45
2019-04-26T10:45:36.517Z,969.47
2019-04-26T10:46:36.509Z,969.52
2019-04-26T10:47:38.394Z,969.43
2019-04-26T10:48:36.483Z,969.58
2019-04-26T10:49:36.470Z,969.56
2019-04-26T10:50:36.457Z,969.55
2019-04-26T10:51:38.651Z,969.67
2019-04-26T10:52:37.436Z,969.59
2019-04-26T10:53:36.464Z,969.55
2019-04-26T10:54:36.815Z,969.57
2019-04-26T10:55:36.406Z,969.51
2019-04-26T10:56:36.396Z,969.63
2019-04-26T10:57:36.442Z,969.52
2019-04-26T10:58:37.819Z,969.46
2019-04-26T10:59:39.942Z,969.47
2019-04-26T11:00:37.352Z,969.47
2019-04-26T11:01:36.510Z,969.45
2019-04-26T11:02:36.333Z,969.57
2019-04-26T11:03:36.325Z,969.64
2019-04-26T11:04:37.333Z,969.66
2019-04-26T11:05:36.301Z,969.61
2019-04-26T11:06:36.302Z,969.61
2019-04-26T11:07:36.280Z,969.55
2019-04-26T11:08:36.303Z,969.52
2019-04-26T11:09:36.256Z,969.54
2019-04-26T11:10:48.041Z,969.52
2019-04-26T11:11:37.242Z,969.48
2019-04-26T11:12:39.659Z,969.61
2019-04-26T11:13:37.214Z,969.63
2019-04-26T11:14:36.203Z,969.75
2019-04-26T11:15:36.191Z,969.72
2019-04-26T11:16:37.142Z,969.76
2019-04-26T11:17:36.172Z,969.83
2019-04-26T11:18:36.160Z,969.84
2019-04-26T11:19:36.640Z,969.80
2019-04-26T11:20:36.138Z,969.88
2019-04-26T11:21:36.137Z,969.95
2019-04-26T11:22:37.585Z,969.89
2019-04-26T11:23:36.104Z,969.86
2019-04-26T11:24:36.094Z,969.89
2019-04-26T11:25:36.082Z,969.81
2019-04-26T11:26:36.310Z,969.88
2019-04-26T11:27:36.080Z,970.01
2019-04-26T11:28:36.052Z,970.01
2019-04-26T11:29:36.042Z,969.96
2019-04-26T11:30:36.076Z,969.90
2019-04-26T11:31:36.028Z,969.95
2019-04-26T11:32:36.767Z,969.94
2019-04-26T11:33:44.677Z,969.86
2019-04-26T11:34:36.991Z,969.86
2019-04-26T11:35:36.023Z,969.83
2019-04-26T11:36:37.580Z,969.92
2019-04-26T11:37:36.950Z,969.91
2019-04-26T11:38:35.946Z,969.90
2019-04-26T11:39:36.447Z,969.92
2019-04-26T11:40:35.919Z,969.91
2019-04-26T11:41:37.641Z,970.00
2019-04-26T11:42:35.902Z,969.97
2019-04-26T11:43:35.890Z,970.00
2019-04-26T11:44:35.927Z,969.99
2019-04-26T11:45:35.865Z,969.98
2019-04-26T11:46:44.499Z,969.97
2019-04-26T11:47:37.184Z,970.03
2019-04-26T11:48:36.835Z,970.06
2019-04-26T11:49:37.330Z,970.04
2019-04-26T11:50:36.809Z,970.11
2019-04-26T11:51:35.855Z,970.20
2019-04-26T11:52:37.350Z,970.18
2019-04-26T11:53:35.777Z,970.11
2019-04-26T11:54:35.766Z,970.16
2019-04-26T11:55:35.755Z,970.12
2019-04-26T11:56:37.661Z,970.21
2019-04-26T11:57:35.760Z,970.25
2019-04-26T11:58:35.820Z,970.31
2019-04-26T11:59:35.714Z,970.41
2019-04-26T12:00:35.702Z,970.40
2019-04-26T12:01:36.639Z,970.40
2019-04-26T12:02:35.713Z,970.37
2019-04-26T12:03:35.668Z,970.39
2019-04-26T12:04:35.662Z,970.39
2019-04-26T12:05:35.690Z,970.37
2019-04-26T12:06:35.638Z,970.41
2019-04-26T12:07:35.638Z,970.37
2019-04-26T12:08:35.616Z,970.40
2019-04-26T12:09:35.603Z,970.33
2019-04-26T12:10:35.594Z,970.50
2019-04-26T12:11:35.582Z,970.40
2019-04-26T12:12:35.577Z,970.40
2019-04-26T12:13:35.580Z,970.42
2019-04-26T12:14:35.548Z,970.56
2019-04-26T12:15:38.949Z,970.57
2019-04-26T12:16:47.051Z,970.56
2019-04-26T12:17:36.871Z,970.67
2019-04-26T12:18:35.511Z,970.62
2019-04-26T12:19:35.495Z,970.70
2019-04-26T12:20:35.483Z,970.71
2019-04-26T12:21:35.471Z,970.66
2019-04-26T12:22:35.462Z,970.71
2019-04-26T12:23:35.451Z,970.79
2019-04-26T12:24:35.458Z,970.81
2019-04-26T12:25:38.785Z,970.88
2019-04-26T12:26:42.675Z,970.84
2019-04-26T12:27:36.496Z,970.93
2019-04-26T12:28:36.349Z,970.95
2019-04-26T12:29:35.390Z,970.93